sensor_id;sensor_type;location;lat;lon;timestamp;pressure;altitude;pressure_sealevel;temperature;humidity
71145;BME280;58812;47.698;17.726;2022-09-09T00:00:20;100094.91;;;16.72;87.01
71145;BME280;58812;47.698;17.726;2022-09-09T00:02:59;100085.66;;;16.67;87.43
71145;BME280;58812;47.698;17.726;2022-09-09T00:08:03;100094.91;;;16.72;86.98
71145;BME280;58812;47.698;17.726;2022-09-09T00:10:37;100097.78;;;16.71;86.82
71145;BME280;58812;47.698;17.726;2022-09-09T00:16:14;100086.50;;;16.67;86.94
71145;BME280;58812;47.698;17.726;2022-09-09T00:21:35;100081.84;;;16.61;87.18
71145;BME280;58812;47.698;17.726;2022-09-09T00:24:28;100084.72;;;16.60;87.18
71145;BME280;58812;47.698;17.726;2022-09-09T00:27:04;100086.44;;;16.61;87.41
71145;BME280;58812;47.698;17.726;2022-09-09T00:29:41;100089.97;;;16.61;87.61
71145;BME280;58812;47.698;17.726;2022-09-09T00:32:16;100095.53;;;16.60;87.40
71145;BME280;58812;47.698;17.726;2022-09-09T00:34:56;100084.75;;;16.45;88.01
71145;BME280;58812;47.698;17.726;2022-09-09T00:37:23;100089.13;;;16.46;87.96
71145;BME280;58812;47.698;17.726;2022-09-09T00:39:51;100087.19;;;16.40;87.85
71145;BME280;58812;47.698;17.726;2022-09-09T00:45:24;100098.47;;;16.28;88.51
71145;BME280;58812;47.698;17.726;2022-09-09T00:47:53;100101.94;;;16.22;88.62
71145;BME280;58812;47.698;17.726;2022-09-09T00:50:57;100110.50;;;16.11;89.02
71145;BME280;58812;47.698;17.726;2022-09-09T00:54:35;100118.41;;;15.98;89.88
71145;BME280;58812;47.698;17.726;2022-09-09T00:56:46;100114.31;;;16.02;89.96
71145;BME280;58812;47.698;17.726;2022-09-09T00:59:16;100093.75;;;16.01;90.04
71145;BME280;58812;47.698;17.726;2022-09-09T01:01:48;100087.31;;;16.02;90.16
71145;BME280;58812;47.698;17.726;2022-09-09T01:04:19;100090.78;;;15.96;89.96
71145;BME280;58812;47.698;17.726;2022-09-09T01:06:49;100094.31;;;15.96;90.13
71145;BME280;58812;47.698;17.726;2022-09-09T01:09:24;100097.16;;;15.95;90.16
71145;BME280;58812;47.698;17.726;2022-09-09T01:14:35;100107.97;;;15.95;90.12
71145;BME280;58812;47.698;17.726;2022-09-09T01:22:56;100119.31;;;15.75;90.18
71145;BME280;58812;47.698;17.726;2022-09-09T01:27:40;100121.97;;;15.61;90.80
71145;BME280;58812;47.698;17.726;2022-09-09T01:30:16;100132.91;;;15.59;91.09
71145;BME280;58812;47.698;17.726;2022-09-09T01:32:45;100140.06;;;15.52;91.23
71145;BME280;58812;47.698;17.726;2022-09-09T01:35:19;100150.50;;;15.55;91.16
71145;BME280;58812;47.698;17.726;2022-09-09T01:37:48;100149.00;;;15.53;91.08
71145;BME280;58812;47.698;17.726;2022-09-09T01:40:13;100138.87;;;15.55;91.16
71145;BME280;58812;47.698;17.726;2022-09-09T01:42:39;100149.78;;;15.61;90.93
71145;BME280;58812;47.698;17.726;2022-09-09T01:45:05;100155.19;;;15.61;91.01
71145;BME280;58812;47.698;17.726;2022-09-09T01:47:30;100146.72;;;15.64;91.19
71145;BME280;58812;47.698;17.726;2022-09-09T01:49:56;100155.31;;;15.68;91.20
71145;BME280;58812;47.698;17.726;2022-09-09T01:52:21;100156.22;;;15.60;91.36
71145;BME280;58812;47.698;17.726;2022-09-09T01:54:47;100153.50;;;15.60;91.27
71145;BME280;58812;47.698;17.726;2022-09-09T01:57:18;100156.63;;;15.49;91.66
71145;BME280;58812;47.698;17.726;2022-09-09T02:02:27;100147.41;;;15.43;91.57
71145;BME280;58812;47.698;17.726;2022-09-09T02:05:17;100145.25;;;15.39;91.87
71145;BME280;58812;47.698;17.726;2022-09-09T02:07:49;100145.25;;;15.39;92.41
71145;BME280;58812;47.698;17.726;2022-09-09T02:10:59;100131.00;;;15.30;92.56
71145;BME280;58812;47.698;17.726;2022-09-09T02:13:10;100132.53;;;15.25;93.20
71145;BME280;58812;47.698;17.726;2022-09-09T02:15:47;100130.19;;;15.21;93.71
71145;BME280;58812;47.698;17.726;2022-09-09T02:18:26;100125.81;;;15.20;93.75
71145;BME280;58812;47.698;17.726;2022-09-09T02:20:53;100118.16;;;15.09;94.38
71145;BME280;58812;47.698;17.726;2022-09-09T02:23:19;100129.88;;;15.16;94.34
71145;BME280;58812;47.698;17.726;2022-09-09T02:25:46;100134.81;;;15.13;94.41
71145;BME280;58812;47.698;17.726;2022-09-09T02:28:13;100132.16;;;15.05;94.66
71145;BME280;58812;47.698;17.726;2022-09-09T02:30:41;100130.69;;;15.02;94.81
71145;BME280;58812;47.698;17.726;2022-09-09T02:33:08;100120.78;;;14.94;95.00
71145;BME280;58812;47.698;17.726;2022-09-09T02:35:35;100122.63;;;14.94;95.58
71145;BME280;58812;47.698;17.726;2022-09-09T02:38:06;100131.69;;;15.01;95.43
71145;BME280;58812;47.698;17.726;2022-09-09T02:40:33;100137.94;;;15.02;95.25
71145;BME280;58812;47.698;17.726;2022-09-09T02:42:58;100146.34;;;14.99;95.33
71145;BME280;58812;47.698;17.726;2022-09-09T02:45:27;100141.81;;;14.99;95.03
71145;BME280;58812;47.698;17.726;2022-09-09T02:50:37;100151.94;;;14.97;95.28
71145;BME280;58812;47.698;17.726;2022-09-09T02:53:17;100140.81;;;15.00;95.24
71145;BME280;58812;47.698;17.726;2022-09-09T02:55:54;100136.72;;;15.04;95.07
71145;BME280;58812;47.698;17.726;2022-09-09T02:58:22;100134.22;;;15.03;94.77
71145;BME280;58812;47.698;17.726;2022-09-09T03:00:50;100133.38;;;15.02;95.07
71145;BME280;58812;47.698;17.726;2022-09-09T03:03:17;100136.25;;;15.01;94.82
71145;BME280;58812;47.698;17.726;2022-09-09T03:05:44;100129.66;;;15.03;94.94
71145;BME280;58812;47.698;17.726;2022-09-09T03:08:10;100126.97;;;15.03;94.67
71145;BME280;58812;47.698;17.726;2022-09-09T03:10:35;100122.09;;;14.99;94.74
71145;BME280;58812;47.698;17.726;2022-09-09T03:13:02;100118.56;;;14.98;95.08
71145;BME280;58812;47.698;17.726;2022-09-09T03:15:29;100122.59;;;15.02;94.93
71145;BME280;58812;47.698;17.726;2022-09-09T03:17:56;100119.59;;;14.97;94.76
71145;BME280;58812;47.698;17.726;2022-09-09T03:20:26;100114.19;;;14.97;94.65
71145;BME280;58812;47.698;17.726;2022-09-09T03:22:55;100110.66;;;14.96;94.38
71145;BME280;58812;47.698;17.726;2022-09-09T03:25:21;100115.88;;;14.98;94.92
71145;BME280;58812;47.698;17.726;2022-09-09T03:27:51;100123.66;;;14.93;95.08
71145;BME280;58812;47.698;17.726;2022-09-09T03:30:20;100129.41;;;14.90;95.47
71145;BME280;58812;47.698;17.726;2022-09-09T03:32:46;100122.81;;;14.92;94.93
71145;BME280;58812;47.698;17.726;2022-09-09T03:35:11;100121.97;;;14.92;95.42
71145;BME280;58812;47.698;17.726;2022-09-09T03:37:37;100126.75;;;14.82;95.38
71145;BME280;58812;47.698;17.726;2022-09-09T03:40:04;100129.75;;;14.87;95.57
71145;BME280;58812;47.698;17.726;2022-09-09T03:42:29;100129.41;;;14.90;95.51
71145;BME280;58812;47.698;17.726;2022-09-09T03:44:56;100129.88;;;14.93;95.38
71145;BME280;58812;47.698;17.726;2022-09-09T03:47:23;100113.25;;;14.90;95.03
71145;BME280;58812;47.698;17.726;2022-09-09T03:49:48;100126.78;;;15.05;95.60
71145;BME280;58812;47.698;17.726;2022-09-09T03:52:14;100121.97;;;14.92;94.82
71145;BME280;58812;47.698;17.726;2022-09-09T03:54:40;100137.81;;;14.95;95.33
71145;BME280;58812;47.698;17.726;2022-09-09T03:57:08;100132.63;;;14.85;95.01
71145;BME280;58812;47.698;17.726;2022-09-09T03:59:34;100132.97;;;14.82;95.48
71145;BME280;58812;47.698;17.726;2022-09-09T04:02:00;100132.13;;;14.82;95.46
71145;BME280;58812;47.698;17.726;2022-09-09T04:04:26;100141.25;;;14.81;95.48
71145;BME280;58812;47.698;17.726;2022-09-09T04:06:52;100147.00;;;14.78;95.86
71145;BME280;58812;47.698;17.726;2022-09-09T04:09:18;100138.22;;;14.76;95.90
71145;BME280;58812;47.698;17.726;2022-09-09T04:11:43;100147.19;;;14.68;96.25
71145;BME280;58812;47.698;17.726;2022-09-09T04:14:08;100147.62;;;14.49;96.91
71145;BME280;58812;47.698;17.726;2022-09-09T04:16:34;100166.63;;;14.55;96.86
71145;BME280;58812;47.698;17.726;2022-09-09T04:19:03;100170.84;;;14.50;97.20
71145;BME280;58812;47.698;17.726;2022-09-09T04:21:30;100170.69;;;14.51;97.07
71145;BME280;58812;47.698;17.726;2022-09-09T04:23:55;100172.03;;;14.55;96.95
71145;BME280;58812;47.698;17.726;2022-09-09T04:26:21;100167.28;;;14.57;96.83
71145;BME280;58812;47.698;17.726;2022-09-09T04:28:47;100176.75;;;14.53;97.04
71145;BME280;58812;47.698;17.726;2022-09-09T04:31:17;100176.37;;;14.56;97.04
71145;BME280;58812;47.698;17.726;2022-09-09T04:33:44;100172.34;;;14.60;96.84
71145;BME280;58812;47.698;17.726;2022-09-09T04:36:09;100176.50;;;14.71;96.85
71145;BME280;58812;47.698;17.726;2022-09-09T04:38:35;100177.69;;;14.68;96.49
71145;BME280;58812;47.698;17.726;2022-09-09T04:41:01;100179.03;;;14.73;96.34
71145;BME280;58812;47.698;17.726;2022-09-09T04:43:26;100181.72;;;14.73;96.03
71145;BME280;58812;47.698;17.726;2022-09-09T04:45:52;100180.00;;;14.80;95.90
71145;BME280;58812;47.698;17.726;2022-09-09T04:48:19;100183.19;;;14.83;95.40
71145;BME280;58812;47.698;17.726;2022-09-09T04:50:59;100183.66;;;14.87;95.19
71145;BME280;58812;47.698;17.726;2022-09-09T04:53:25;100177.25;;;14.88;95.39
71145;BME280;58812;47.698;17.726;2022-09-09T04:55:52;100179.94;;;14.88;95.12
71145;BME280;58812;47.698;17.726;2022-09-09T04:58:18;100181.28;;;14.92;95.17
71145;BME280;58812;47.698;17.726;2022-09-09T05:00:43;100182.94;;;14.93;95.15
71145;BME280;58812;47.698;17.726;2022-09-09T05:03:09;100177.09;;;14.89;95.24
71145;BME280;58812;47.698;17.726;2022-09-09T05:05:34;100179.22;;;14.94;95.59
71145;BME280;58812;47.698;17.726;2022-09-09T05:08:04;100172.28;;;15.00;95.47
71145;BME280;58812;47.698;17.726;2022-09-09T05:10:31;100181.72;;;15.04;94.82
71145;BME280;58812;47.698;17.726;2022-09-09T05:12:57;100175.66;;;15.02;94.84
71145;BME280;58812;47.698;17.726;2022-09-09T05:15:22;100185.75;;;15.08;94.74
71145;BME280;58812;47.698;17.726;2022-09-09T05:17:48;100187.53;;;15.15;94.48
71145;BME280;58812;47.698;17.726;2022-09-09T05:20:13;100182.87;;;15.09;94.44
71145;BME280;58812;47.698;17.726;2022-09-09T05:22:38;100194.66;;;15.08;94.30
71145;BME280;58812;47.698;17.726;2022-09-09T05:25:04;100197.00;;;15.11;94.16
71145;BME280;58812;47.698;17.726;2022-09-09T05:27:30;100189.94;;;15.10;94.40
71145;BME280;58812;47.698;17.726;2022-09-09T05:29:58;100185.38;;;15.11;94.31
71145;BME280;58812;47.698;17.726;2022-09-09T05:32:23;100180.97;;;15.18;94.15
71145;BME280;58812;47.698;17.726;2022-09-09T05:34:49;100175.97;;;15.30;93.78
71145;BME280;58812;47.698;17.726;2022-09-09T05:37:15;100170.22;;;15.33;93.57
71145;BME280;58812;47.698;17.726;2022-09-09T05:39:41;100169.59;;;15.31;93.30
71145;BME280;58812;47.698;17.726;2022-09-09T05:42:07;100169.91;;;15.36;93.21
71145;BME280;58812;47.698;17.726;2022-09-09T05:44:32;100161.81;;;15.36;92.89
71145;BME280;58812;47.698;17.726;2022-09-09T05:46:57;100176.81;;;15.53;92.95
71145;BME280;58812;47.698;17.726;2022-09-09T05:49:23;100173.00;;;15.70;91.80
71145;BME280;58812;47.698;17.726;2022-09-09T05:51:49;100163.72;;;15.88;90.73
71145;BME280;58812;47.698;17.726;2022-09-09T05:54:15;100174.03;;;16.37;88.62
71145;BME280;58812;47.698;17.726;2022-09-09T05:56:41;100180.53;;;16.57;87.19
71145;BME280;58812;47.698;17.726;2022-09-09T05:59:07;100184.75;;;16.45;87.17
71145;BME280;58812;47.698;17.726;2022-09-09T06:01:35;100171.72;;;16.48;86.80
71145;BME280;58812;47.698;17.726;2022-09-09T06:04:01;100174.69;;;16.39;87.64
71145;BME280;58812;47.698;17.726;2022-09-09T06:06:31;100176.28;;;17.35;84.43
71145;BME280;58812;47.698;17.726;2022-09-09T06:08:57;100180.09;;;17.41;83.79
71145;BME280;58812;47.698;17.726;2022-09-09T06:11:26;100178.00;;;17.79;81.09
71145;BME280;58812;47.698;17.726;2022-09-09T06:13:52;100185.34;;;18.20;78.79
71145;BME280;58812;47.698;17.726;2022-09-09T06:16:21;100181.22;;;18.24;79.15
71145;BME280;58812;47.698;17.726;2022-09-09T06:18:49;100176.22;;;18.21;79.13
71145;BME280;58812;47.698;17.726;2022-09-09T06:21:17;100183.81;;;18.04;79.71
71145;BME280;58812;47.698;17.726;2022-09-09T06:23:43;100182.75;;;17.77;80.98
71145;BME280;58812;47.698;17.726;2022-09-09T06:26:21;100182.31;;;18.01;80.22
71145;BME280;58812;47.698;17.726;2022-09-09T06:28:48;100183.03;;;18.10;79.67
71145;BME280;58812;47.698;17.726;2022-09-09T06:31:16;100185.84;;;18.02;80.96
71145;BME280;58812;47.698;17.726;2022-09-09T06:33:50;100188.47;;;17.67;81.21
71145;BME280;58812;47.698;17.726;2022-09-09T06:36:26;100188.12;;;18.26;79.30
71145;BME280;58812;47.698;17.726;2022-09-09T06:38:52;100185.28;;;19.37;75.24
71145;BME280;58812;47.698;17.726;2022-09-09T06:41:19;100180.56;;;20.12;71.70
71145;BME280;58812;47.698;17.726;2022-09-09T06:43:46;100180.03;;;20.68;69.74
71145;BME280;58812;47.698;17.726;2022-09-09T06:46:12;100172.44;;;20.83;67.71
71145;BME280;58812;47.698;17.726;2022-09-09T06:48:42;100178.44;;;21.05;67.67
71145;BME280;58812;47.698;17.726;2022-09-09T06:51:12;100177.84;;;21.28;66.80
71145;BME280;58812;47.698;17.726;2022-09-09T06:53:39;100198.59;;;21.92;64.20
71145;BME280;58812;47.698;17.726;2022-09-09T06:56:19;100191.56;;;21.84;63.51
71145;BME280;58812;47.698;17.726;2022-09-09T06:58:46;100191.56;;;21.15;64.53
71145;BME280;58812;47.698;17.726;2022-09-09T07:01:16;100192.19;;;22.05;62.23
71145;BME280;58812;47.698;17.726;2022-09-09T07:03:45;100187.44;;;22.25;61.41
71145;BME280;58812;47.698;17.726;2022-09-09T07:06:22;100197.22;;;22.33;62.11
71145;BME280;58812;47.698;17.726;2022-09-09T07:08:59;100200.19;;;22.50;61.57
71145;BME280;58812;47.698;17.726;2022-09-09T07:11:31;100210.37;;;22.98;59.67
71145;BME280;58812;47.698;17.726;2022-09-09T07:13:58;100211.59;;;23.02;58.99
71145;BME280;58812;47.698;17.726;2022-09-09T07:16:24;100199.91;;;23.13;58.79
71145;BME280;58812;47.698;17.726;2022-09-09T07:18:51;100211.81;;;23.30;57.92
71145;BME280;58812;47.698;17.726;2022-09-09T07:21:18;100208.88;;;22.40;61.38
71145;BME280;58812;47.698;17.726;2022-09-09T07:23:44;100215.28;;;23.56;58.14
71145;BME280;58812;47.698;17.726;2022-09-09T07:26:15;100216.19;;;23.19;57.19
71145;BME280;58812;47.698;17.726;2022-09-09T07:28:41;100222.63;;;23.55;56.66
71145;BME280;58812;47.698;17.726;2022-09-09T07:31:13;100229.78;;;23.98;56.46
71145;BME280;58812;47.698;17.726;2022-09-09T07:33:39;100229.09;;;24.03;55.08
71145;BME280;58812;47.698;17.726;2022-09-09T07:36:17;100226.00;;;24.22;55.03
71145;BME280;58812;47.698;17.726;2022-09-09T07:38:48;100217.00;;;24.45;53.62
71145;BME280;58812;47.698;17.726;2022-09-09T07:41:19;100212.97;;;25.00;52.81
71145;BME280;58812;47.698;17.726;2022-09-09T07:43:46;100203.94;;;24.88;52.75
71145;BME280;58812;47.698;17.726;2022-09-09T07:46:14;100211.34;;;24.05;55.01
71145;BME280;58812;47.698;17.726;2022-09-09T07:48:50;100199.06;;;23.42;56.84
71145;BME280;58812;47.698;17.726;2022-09-09T07:51:20;100204.97;;;23.09;57.49
71145;BME280;58812;47.698;17.726;2022-09-09T07:53:48;100200.50;;;23.15;57.85
71145;BME280;58812;47.698;17.726;2022-09-09T07:56:17;100195.88;;;23.15;58.91
71145;BME280;58812;47.698;17.726;2022-09-09T07:58:45;100193.13;;;23.15;58.79
71145;BME280;58812;47.698;17.726;2022-09-09T08:03:38;100194.34;;;23.19;58.35
71145;BME280;58812;47.698;17.726;2022-09-09T08:06:06;100202.69;;;23.25;58.14
71145;BME280;58812;47.698;17.726;2022-09-09T08:08:35;100205.22;;;23.38;58.12
71145;BME280;58812;47.698;17.726;2022-09-09T08:11:07;100199.31;;;23.53;57.91
71145;BME280;58812;47.698;17.726;2022-09-09T08:13:36;100193.59;;;23.73;56.90
71145;BME280;58812;47.698;17.726;2022-09-09T08:16:07;100200.84;;;23.37;58.03
71145;BME280;58812;47.698;17.726;2022-09-09T08:18:33;100188.03;;;23.79;55.85
71145;BME280;58812;47.698;17.726;2022-09-09T08:21:08;100196.56;;;23.83;55.94
71145;BME280;58812;47.698;17.726;2022-09-09T08:23:34;100200.13;;;24.89;53.77
71145;BME280;58812;47.698;17.726;2022-09-09T08:26:17;100212.41;;;25.55;51.83
71145;BME280;58812;47.698;17.726;2022-09-09T08:28:46;100208.28;;;25.69;49.48
71145;BME280;58812;47.698;17.726;2022-09-09T08:31:15;100205.09;;;26.06;48.96
71145;BME280;58812;47.698;17.726;2022-09-09T08:33:42;100209.91;;;25.53;49.48
71145;BME280;58812;47.698;17.726;2022-09-09T08:36:10;100206.25;;;25.48;50.28
71145;BME280;58812;47.698;17.726;2022-09-09T08:38:36;100208.38;;;25.29;49.82
71145;BME280;58812;47.698;17.726;2022-09-09T08:44:23;100217.16;;;26.05;48.53
71145;BME280;58812;47.698;17.726;2022-09-09T08:51:49;100218.88;;;27.27;44.04
71145;BME280;58812;47.698;17.726;2022-09-09T08:54:15;100213.63;;;27.48;44.14
71145;BME280;58812;47.698;17.726;2022-09-09T08:56:42;100205.78;;;27.88;43.42
71145;BME280;58812;47.698;17.726;2022-09-09T08:59:11;100208.44;;;28.95;41.94
71145;BME280;58812;47.698;17.726;2022-09-09T09:04:38;100209.38;;;28.68;40.71
71145;BME280;58812;47.698;17.726;2022-09-09T09:07:31;100211.56;;;28.66;39.56
71145;BME280;58812;47.698;17.726;2022-09-09T09:10:15;100210.81;;;28.81;39.78
71145;BME280;58812;47.698;17.726;2022-09-09T09:12:46;100194.97;;;29.09;38.68
71145;BME280;58812;47.698;17.726;2022-09-09T09:15:35;100203.19;;;28.46;38.91
71145;BME280;58812;47.698;17.726;2022-09-09T09:18:02;100205.28;;;28.81;38.48
71145;BME280;58812;47.698;17.726;2022-09-09T09:23:25;100202.72;;;29.22;36.78
71145;BME280;58812;47.698;17.726;2022-09-09T09:25:58;100202.09;;;28.94;38.21
71145;BME280;58812;47.698;17.726;2022-09-09T09:28:27;100193.75;;;28.84;37.53
71145;BME280;58812;47.698;17.726;2022-09-09T09:30:55;100186.69;;;29.04;36.70
71145;BME280;58812;47.698;17.726;2022-09-09T09:33:38;100199.34;;;28.94;35.55
71145;BME280;58812;47.698;17.726;2022-09-09T09:36:09;100195.03;;;29.29;35.22
71145;BME280;58812;47.698;17.726;2022-09-09T09:38:36;100200.91;;;29.58;36.05
71145;BME280;58812;47.698;17.726;2022-09-09T09:41:02;100193.28;;;28.97;36.92
71145;BME280;58812;47.698;17.726;2022-09-09T09:43:30;100190.00;;;29.00;35.24
71145;BME280;58812;47.698;17.726;2022-09-09T09:45:56;100191.66;;;29.02;35.69
71145;BME280;58812;47.698;17.726;2022-09-09T09:48:23;100193.31;;;29.03;35.92
71145;BME280;58812;47.698;17.726;2022-09-09T09:51:10;100195.69;;;29.62;36.29
71145;BME280;58812;47.698;17.726;2022-09-09T09:53:38;100195.34;;;29.43;35.75
71145;BME280;58812;47.698;17.726;2022-09-09T09:56:13;100186.75;;;29.34;35.79
71145;BME280;58812;47.698;17.726;2022-09-09T10:01:24;100185.00;;;28.92;36.32
71145;BME280;58812;47.698;17.726;2022-09-09T10:03:54;100189.06;;;29.83;34.03
71145;BME280;58812;47.698;17.726;2022-09-09T10:06:33;100190.56;;;29.08;36.27
71145;BME280;58812;47.698;17.726;2022-09-09T10:08:59;100181.78;;;29.26;35.50
71145;BME280;58812;47.698;17.726;2022-09-09T10:19:30;100184.62;;;30.38;34.00
71145;BME280;58812;47.698;17.726;2022-09-09T10:22:08;100170.84;;;29.62;35.05
71145;BME280;58812;47.698;17.726;2022-09-09T10:25:18;100172.53;;;29.83;33.98
71145;BME280;58812;47.698;17.726;2022-09-09T10:34:10;100175.25;;;29.68;35.13
71145;BME280;58812;47.698;17.726;2022-09-09T10:36:44;100163.81;;;29.03;34.76
71145;BME280;58812;47.698;17.726;2022-09-09T10:39:44;100167.53;;;29.90;32.97
71145;BME280;58812;47.698;17.726;2022-09-09T10:42:12;100168.66;;;29.84;32.04
71145;BME280;58812;47.698;17.726;2022-09-09T10:55:27;100163.75;;;28.93;32.34
71145;BME280;58812;47.698;17.726;2022-09-09T10:57:57;100161.72;;;28.26;35.60
71145;BME280;58812;47.698;17.726;2022-09-09T11:00:29;100161.16;;;29.49;33.75
71145;BME280;58812;47.698;17.726;2022-09-09T11:02:59;100166.47;;;31.02;31.32
71145;BME280;58812;47.698;17.726;2022-09-09T11:05:30;100160.38;;;29.89;32.54
71145;BME280;58812;47.698;17.726;2022-09-09T11:08:05;100167.47;;;30.41;31.69
71145;BME280;58812;47.698;17.726;2022-09-09T11:10:56;100158.13;;;30.32;31.19
71145;BME280;58812;47.698;17.726;2022-09-09T11:16:31;100147.03;;;29.20;33.44
71145;BME280;58812;47.698;17.726;2022-09-09T11:21:49;100150.38;;;30.34;31.05
71145;BME280;58812;47.698;17.726;2022-09-09T11:27:00;100142.84;;;30.60;30.63
71145;BME280;58812;47.698;17.726;2022-09-09T11:35:26;100149.31;;;30.20;31.71
71145;BME280;58812;47.698;17.726;2022-09-09T11:38:18;100148.22;;;31.45;29.39
71145;BME280;58812;47.698;17.726;2022-09-09T11:40:45;100147.72;;;31.38;29.14
71145;BME280;58812;47.698;17.726;2022-09-09T11:46:08;100134.88;;;30.48;30.62
71145;BME280;58812;47.698;17.726;2022-09-09T11:48:38;100129.25;;;30.79;30.37
71145;BME280;58812;47.698;17.726;2022-09-09T11:51:11;100145.37;;;30.41;30.42
71145;BME280;58812;47.698;17.726;2022-09-09T12:01:29;100109.03;;;29.42;31.11
71145;BME280;58812;47.698;17.726;2022-09-09T12:07:03;100107.03;;;29.02;31.19
71145;BME280;58812;47.698;17.726;2022-09-09T12:14:54;100101.84;;;29.97;31.36
71145;BME280;58812;47.698;17.726;2022-09-09T12:17:22;100101.03;;;30.82;29.91
71145;BME280;58812;47.698;17.726;2022-09-09T12:20:00;100094.66;;;29.25;30.12
71145;BME280;58812;47.698;17.726;2022-09-09T12:22:40;100085.22;;;30.23;28.61
71145;BME280;58812;47.698;17.726;2022-09-09T12:25:46;100094.37;;;30.03;28.26
71145;BME280;58812;47.698;17.726;2022-09-09T12:28:20;100083.31;;;30.88;27.47
71145;BME280;58812;47.698;17.726;2022-09-09T12:30:59;100079.75;;;29.46;28.22
71145;BME280;58812;47.698;17.726;2022-09-09T12:33:39;100082.53;;;29.46;29.35
71145;BME280;58812;47.698;17.726;2022-09-09T12:36:14;100079.81;;;29.72;29.28
71145;BME280;58812;47.698;17.726;2022-09-09T12:38:42;100082.03;;;29.55;29.65
71145;BME280;58812;47.698;17.726;2022-09-09T12:41:28;100080.28;;;28.97;30.20
71145;BME280;58812;47.698;17.726;2022-09-09T12:44:09;100064.78;;;28.81;31.20
71145;BME280;58812;47.698;17.726;2022-09-09T12:46:41;100063.13;;;28.70;31.00
71145;BME280;58812;47.698;17.726;2022-09-09T12:49:35;100056.03;;;29.05;30.13
71145;BME280;58812;47.698;17.726;2022-09-09T12:52:12;100065.97;;;29.26;30.39
71145;BME280;58812;47.698;17.726;2022-09-09T12:54:44;100072.31;;;29.06;31.21
71145;BME280;58812;47.698;17.726;2022-09-09T12:57:12;100059.75;;;28.53;30.69
71145;BME280;58812;47.698;17.726;2022-09-09T12:59:41;100044.47;;;29.03;30.71
71145;BME280;58812;47.698;17.726;2022-09-09T13:02:26;100043.81;;;28.65;31.05
71145;BME280;58812;47.698;17.726;2022-09-09T13:04:53;100047.06;;;28.52;32.19
71145;BME280;58812;47.698;17.726;2022-09-09T13:07:20;100043.25;;;28.63;32.01
71145;BME280;58812;47.698;17.726;2022-09-09T13:09:47;100032.97;;;28.38;31.79
71145;BME280;58812;47.698;17.726;2022-09-09T13:12:22;100026.00;;;28.25;32.74
71145;BME280;58812;47.698;17.726;2022-09-09T13:14:50;100031.53;;;28.25;32.36
71145;BME280;58812;47.698;17.726;2022-09-09T13:17:36;100036.41;;;28.13;32.58
71145;BME280;58812;47.698;17.726;2022-09-09T13:20:02;100041.91;;;28.08;34.69
71145;BME280;58812;47.698;17.726;2022-09-09T13:22:33;100040.69;;;27.88;33.96
71145;BME280;58812;47.698;17.726;2022-09-09T13:25:18;100036.19;;;27.72;33.22
71145;BME280;58812;47.698;17.726;2022-09-09T13:27:59;100032.12;;;27.85;30.91
71145;BME280;58812;47.698;17.726;2022-09-09T13:30:33;100016.97;;;27.77;32.94
71145;BME280;58812;47.698;17.726;2022-09-09T13:35:35;100017.78;;;27.78;34.04
71145;BME280;58812;47.698;17.726;2022-09-09T13:38:14;100027.88;;;27.67;33.93
71145;BME280;58812;47.698;17.726;2022-09-09T13:40:39;100025.59;;;27.54;34.56
71145;BME280;58812;47.698;17.726;2022-09-09T13:43:14;100020.53;;;27.40;34.28
71145;BME280;58812;47.698;17.726;2022-09-09T13:45:52;100013.87;;;27.31;34.30
71145;BME280;58812;47.698;17.726;2022-09-09T13:48:19;100007.72;;;27.19;34.53
71145;BME280;58812;47.698;17.726;2022-09-09T13:50:57;99994.03;;;26.97;34.89
71145;BME280;58812;47.698;17.726;2022-09-09T13:53:23;99988.84;;;27.01;35.18
71145;BME280;58812;47.698;17.726;2022-09-09T13:55:49;99979.63;;;27.12;34.65
71145;BME280;58812;47.698;17.726;2022-09-09T13:58:17;99971.66;;;27.10;34.56
71145;BME280;58812;47.698;17.726;2022-09-09T14:00:44;99973.31;;;27.11;34.87
71145;BME280;58812;47.698;17.726;2022-09-09T14:03:10;99970.84;;;27.10;35.04
71145;BME280;58812;47.698;17.726;2022-09-09T14:05:35;99956.88;;;26.89;35.29
71145;BME280;58812;47.698;17.726;2022-09-09T14:08:03;99960.12;;;26.81;35.51
71145;BME280;58812;47.698;17.726;2022-09-09T14:10:30;99954.63;;;26.81;35.76
71145;BME280;58812;47.698;17.726;2022-09-09T14:12:55;99953.09;;;26.96;35.53
71145;BME280;58812;47.698;17.726;2022-09-09T14:15:21;99936.31;;;26.92;35.81
71145;BME280;58812;47.698;17.726;2022-09-09T14:17:47;99940.44;;;26.95;36.00
71145;BME280;58812;47.698;17.726;2022-09-09T14:20:13;99943.47;;;26.93;36.09
71145;BME280;58812;47.698;17.726;2022-09-09T14:22:41;99952.28;;;26.68;35.97
71145;BME280;58812;47.698;17.726;2022-09-09T14:25:07;99954.19;;;26.68;36.46
71145;BME280;58812;47.698;17.726;2022-09-09T14:27:33;99951.94;;;26.37;36.62
71145;BME280;58812;47.698;17.726;2022-09-09T14:29:58;99953.53;;;26.55;36.55
71145;BME280;58812;47.698;17.726;2022-09-09T14:32:26;99959.28;;;26.54;36.95
71145;BME280;58812;47.698;17.726;2022-09-09T14:34:51;99963.75;;;26.60;37.06
71145;BME280;58812;47.698;17.726;2022-09-09T14:37:17;99964.94;;;26.69;37.04
71145;BME280;58812;47.698;17.726;2022-09-09T14:39:43;99966.00;;;26.68;36.58
71145;BME280;58812;47.698;17.726;2022-09-09T14:42:15;99967.31;;;26.60;36.73
71145;BME280;58812;47.698;17.726;2022-09-09T14:44:40;99965.25;;;26.46;36.75